createdAt,value
2019-03-22T00:00:31.409Z,5.40
2019-03-22T00:02:57.904Z,5.20
2019-03-22T00:05:24.298Z,5.20
2019-03-22T00:07:50.579Z,5.20
2019-03-22T00:10:17.051Z,5.20
2019-03-22T00:12:43.630Z,5.10
2019-03-22T00:15:10.173Z,5.20
2019-03-22T00:17:36.588Z,5.20
2019-03-22T00:20:06.888Z,5.20
2019-03-22T00:22:33.378Z,5.10
2019-03-22T00:24:59.885Z,5.10
2019-03-22T00:27:26.361Z,5.10
2019-03-22T00:29:52.850Z,5.10
2019-03-22T00:32:19.221Z,5.00
2019-03-22T00:34:45.667Z,5.00
2019-03-22T00:37:12.202Z,5.00
2019-03-22T00:39:38.759Z,5.00
2019-03-22T00:42:05.402Z,5.00
2019-03-22T00:44:32.031Z,4.90
2019-03-22T00:46:58.336Z,4.80
2019-03-22T00:49:24.893Z,4.80
2019-03-22T00:51:51.307Z,4.70
2019-03-22T00:54:17.675Z,4.80
2019-03-22T00:56:44.154Z,4.70
2019-03-22T00:59:10.695Z,4.70
2019-03-22T01:01:37.186Z,4.60
2019-03-22T01:04:03.968Z,4.60
2019-03-22T01:06:30.375Z,4.50
2019-03-22T01:08:56.978Z,4.50
2019-03-22T01:11:23.386Z,4.50
2019-03-22T01:13:49.870Z,4.50
2019-03-22T01:16:16.538Z,4.40
2019-03-22T01:18:42.954Z,4.40
2019-03-22T01:21:09.433Z,4.40
2019-03-22T01:23:35.830Z,4.40
2019-03-22T01:26:02.445Z,4.40
2019-03-22T01:28:29.047Z,4.30
2019-03-22T01:30:55.660Z,4.30
2019-03-22T01:33:22.340Z,4.30
2019-03-22T01:35:49.830Z,4.30
2019-03-22T01:38:16.288Z,4.40
2019-03-22T01:40:42.889Z,4.30
2019-03-22T01:43:09.410Z,4.20
2019-03-22T01:45:36.004Z,4.20
2019-03-22T01:48:02.657Z,4.20
2019-03-22T01:50:29.277Z,4.20
2019-03-22T01:52:55.691Z,4.20
2019-03-22T01:55:24.451Z,4.20
2019-03-22T01:57:53.519Z,4.10
2019-03-22T02:00:19.500Z,4.10
2019-03-22T02:02:45.954Z,4.10
2019-03-22T02:05:14.016Z,4.00
2019-03-22T02:07:40.427Z,4.00
2019-03-22T02:10:09.558Z,4.00
2019-03-22T02:12:36.132Z,4.20
2019-03-22T02:15:04.727Z,4.10
2019-03-22T02:17:31.125Z,4.00
2019-03-22T02:19:57.672Z,3.90
2019-03-22T02:22:24.395Z,3.80
2019-03-22T02:24:50.997Z,3.80
2019-03-22T02:27:17.623Z,3.70
2019-03-22T02:29:44.519Z,3.70
2019-03-22T02:32:11.014Z,3.70
2019-03-22T02:34:37.533Z,3.60
2019-03-22T02:37:04.350Z,3.60
2019-03-22T02:39:31.086Z,3.60
2019-03-22T02:41:57.772Z,3.60
2019-03-22T02:44:24.268Z,3.60
2019-03-22T02:46:50.752Z,3.60
2019-03-22T02:49:17.351Z,3.60
2019-03-22T02:51:43.959Z,3.60
2019-03-22T02:54:10.343Z,3.60
2019-03-22T02:56:36.751Z,3.50
2019-03-22T02:59:03.259Z,3.50
2019-03-22T03:01:29.746Z,3.40
2019-03-22T03:03:56.250Z,3.40
2019-03-22T03:06:22.686Z,3.30
2019-03-22T03:08:49.262Z,3.30
2019-03-22T03:11:15.663Z,3.20
2019-03-22T03:13:42.290Z,3.20
2019-03-22T03:16:08.757Z,3.10
2019-03-22T03:18:35.353Z,3.10
2019-03-22T03:21:01.860Z,3.10
2019-03-22T03:23:28.290Z,3.10
2019-03-22T03:25:54.696Z,3.00
2019-03-22T03:28:35.629Z,3.00
2019-03-22T03:30:49.524Z,2.90
2019-03-22T03:33:15.915Z,2.90
2019-03-22T03:35:42.497Z,2.90
2019-03-22T03:38:08.978Z,2.80
2019-03-22T03:40:35.483Z,2.80
2019-03-22T03:43:02.034Z,2.80
2019-03-22T03:45:34.094Z,2.80
2019-03-22T03:48:01.085Z,2.80
2019-03-22T03:50:27.473Z,2.70
2019-03-22T03:52:54.000Z,2.60
2019-03-22T03:55:20.264Z,2.60
2019-03-22T03:57:46.728Z,2.60
2019-03-22T04:00:13.215Z,2.60
2019-03-22T04:02:39.585Z,2.60
2019-03-22T04:05:07.064Z,2.60
2019-03-22T04:07:33.631Z,2.60
2019-03-22T04:10:00.597Z,2.50
2019-03-22T04:12:26.988Z,2.50
2019-03-22T04:14:53.494Z,2.50
2019-03-22T04:17:19.835Z,2.50
2019-03-22T04:19:46.251Z,2.40
2019-03-22T04:22:12.720Z,2.40
2019-03-22T04:24:39.229Z,2.40
2019-03-22T04:27:06.162Z,2.40
2019-03-22T04:29:32.678Z,2.30
2019-03-22T04:31:59.160Z,2.30
2019-03-22T04:34:25.608Z,2.20
2019-03-22T04:36:52.006Z,2.20
2019-03-22T04:39:18.481Z,2.10
2019-03-22T04:41:45.000Z,2.10
2019-03-22T04:44:11.565Z,2.00
2019-03-22T04:46:41.556Z,2.00
2019-03-22T04:49:10.547Z,2.00
2019-03-22T04:51:37.539Z,2.00
2019-03-22T04:54:05.023Z,2.00
2019-03-22T04:56:34.758Z,1.90
2019-03-22T04:59:03.371Z,1.90
2019-03-22T05:01:30.782Z,2.00
2019-03-22T05:03:59.195Z,1.90
2019-03-22T05:06:26.103Z,2.00
2019-03-22T05:08:53.975Z,2.00
2019-03-22T05:11:21.254Z,2.00
2019-03-22T05:13:51.064Z,2.10
2019-03-22T05:16:20.000Z,2.10
2019-03-22T05:18:47.692Z,2.10
2019-03-22T05:21:15.313Z,2.10
2019-03-22T05:23:42.707Z,2.00
2019-03-22T05:26:12.412Z,2.00
2019-03-22T05:28:39.049Z,2.00
2019-03-22T05:31:21.253Z,2.10
2019-03-22T05:33:47.769Z,2.10
2019-03-22T05:36:14.347Z,2.10
2019-03-22T05:38:40.660Z,2.20
2019-03-22T05:41:07.191Z,2.30
2019-03-22T05:43:33.562Z,2.30
2019-03-22T05:45:59.943Z,2.20
2019-03-22T05:48:26.509Z,2.30
2019-03-22T05:50:52.895Z,2.30
2019-03-22T05:53:19.393Z,2.40
2019-03-22T05:55:45.949Z,2.50
2019-03-22T05:58:12.354Z,2.60
2019-03-22T06:00:38.821Z,2.60
2019-03-22T06:03:05.357Z,2.70
2019-03-22T06:05:31.901Z,2.80
2019-03-22T06:07:58.193Z,3.00
2019-03-22T06:10:24.740Z,4.00
2019-03-22T06:12:51.262Z,5.30
2019-03-22T06:15:19.720Z,6.60
2019-03-22T06:17:51.499Z,7.70
2019-03-22T06:20:14.603Z,8.40
2019-03-22T06:22:41.081Z,9.10
2019-03-22T06:25:07.777Z,9.90
2019-03-22T06:27:34.289Z,10.40
2019-03-22T06:30:00.794Z,10.80
2019-03-22T06:32:27.436Z,11.20
2019-03-22T06:34:54.075Z,11.20
2019-03-22T06:37:20.612Z,11.70
2019-03-22T06:39:46.990Z,11.40
2019-03-22T06:42:13.537Z,11.50
2019-03-22T06:44:39.955Z,11.50
2019-03-22T06:47:06.572Z,11.00
2019-03-22T06:49:33.220Z,11.20
2019-03-22T06:51:59.688Z,11.40
2019-03-22T06:54:31.760Z,11.40
2019-03-22T06:56:55.041Z,11.80
2019-03-22T06:59:21.761Z,12.10
2019-03-22T07:01:48.219Z,12.30
2019-03-22T07:04:14.698Z,12.70
2019-03-22T07:06:41.201Z,13.00
2019-03-22T07:09:07.779Z,13.20
2019-03-22T07:11:36.262Z,13.30
2019-03-22T07:14:02.860Z,13.80
2019-03-22T07:16:29.515Z,13.90
2019-03-22T07:18:56.030Z,14.10
2019-03-22T07:21:22.733Z,13.90
2019-03-22T07:23:50.637Z,14.00
2019-03-22T07:26:17.394Z,14.20
2019-03-22T07:28:43.963Z,14.50
2019-03-22T07:31:10.584Z,15.00
2019-03-22T07:33:37.137Z,15.80
2019-03-22T07:36:04.120Z,16.40
2019-03-22T07:38:30.747Z,16.50
2019-03-22T07:40:57.081Z,16.20
2019-03-22T07:43:23.570Z,15.90
2019-03-22T07:45:49.951Z,16.00
2019-03-22T07:48:16.368Z,16.10
2019-03-22T07:50:42.845Z,15.70
2019-03-22T07:53:09.387Z,15.40
2019-03-22T07:55:36.031Z,15.50
2019-03-22T07:58:02.666Z,15.60
2019-03-22T08:00:31.051Z,16.20
2019-03-22T08:02:57.524Z,16.50
2019-03-22T08:05:24.045Z,16.60
2019-03-22T08:07:50.569Z,16.90
2019-03-22T08:10:16.984Z,17.00
2019-03-22T08:12:43.344Z,17.00
2019-03-22T08:15:11.665Z,16.90
2019-03-22T08:17:38.252Z,17.10
2019-03-22T08:20:05.312Z,16.60
2019-03-22T08:22:31.994Z,16.90
2019-03-22T08:24:58.412Z,16.30
2019-03-22T08:27:24.905Z,16.00
2019-03-22T08:29:51.389Z,15.60
2019-03-22T08:32:18.012Z,16.20
2019-03-22T08:34:44.367Z,16.30
2019-03-22T08:37:10.805Z,16.00
2019-03-22T08:39:37.289Z,14.70
2019-03-22T08:42:03.829Z,14.10
2019-03-22T08:44:30.267Z,14.30
2019-03-22T08:46:56.778Z,14.70
2019-03-22T08:49:23.363Z,14.50
2019-03-22T08:51:49.987Z,13.40
2019-03-22T08:54:16.417Z,12.90
2019-03-22T08:56:42.798Z,12.90
2019-03-22T08:59:09.234Z,12.90
2019-03-22T09:01:35.741Z,12.30
2019-03-22T09:04:02.252Z,12.40
2019-03-22T09:06:28.728Z,12.70
2019-03-22T09:08:55.321Z,12.50
2019-03-22T09:11:21.898Z,12.30
2019-03-22T09:13:48.326Z,12.00
2019-03-22T09:16:14.728Z,11.90
2019-03-22T09:18:41.273Z,12.00
2019-03-22T09:21:07.844Z,11.60
2019-03-22T09:23:34.436Z,11.30
2019-03-22T09:26:00.771Z,11.50
2019-03-22T09:28:27.282Z,11.50
2019-03-22T09:30:53.641Z,11.60
2019-03-22T09:33:20.335Z,11.60
2019-03-22T09:35:46.940Z,11.30
2019-03-22T09:38:13.632Z,10.90
2019-03-22T09:40:40.163Z,10.30
2019-03-22T09:43:06.581Z,9.60
2019-03-22T09:45:33.245Z,9.00
2019-03-22T09:47:59.625Z,8.80
2019-03-22T09:50:26.104Z,8.60
2019-03-22T09:52:52.483Z,8.40
2019-03-22T09:55:19.177Z,8.30
2019-03-22T09:57:45.770Z,8.10
2019-03-22T10:00:24.662Z,8.20
2019-03-22T10:02:51.339Z,8.20
2019-03-22T10:05:17.782Z,8.20
2019-03-22T10:07:44.665Z,8.20
2019-03-22T10:10:11.257Z,8.20
2019-03-22T10:12:37.727Z,8.20
2019-03-22T10:15:07.389Z,8.10
2019-03-22T10:17:33.775Z,8.00
2019-03-22T10:20:02.533Z,8.00
2019-03-22T10:22:28.973Z,7.90
2019-03-22T10:24:55.513Z,7.90
2019-03-22T10:27:21.919Z,7.90
2019-03-22T10:29:49.453Z,7.90
2019-03-22T10:32:16.125Z,7.90
2019-03-22T10:34:42.451Z,7.90
2019-03-22T10:37:09.049Z,7.80
2019-03-22T10:39:35.596Z,7.90
2019-03-22T10:42:03.238Z,7.90
2019-03-22T10:44:29.732Z,7.90
2019-03-22T10:46:56.442Z,8.00
2019-03-22T10:49:23.042Z,8.00
2019-03-22T10:51:56.923Z,8.00
2019-03-22T10:54:17.933Z,8.10
2019-03-22T10:56:44.396Z,8.20
2019-03-22T10:59:10.826Z,8.20
2019-03-22T11:01:48.702Z,8.20
2019-03-22T11:06:34.231Z,8.40
2019-03-22T11:09:00.761Z,8.30
2019-03-22T11:11:27.209Z,8.30
2019-03-22T11:13:53.680Z,8.40
2019-03-22T11:16:20.385Z,8.50
2019-03-22T11:18:46.993Z,8.60
2019-03-22T11:21:13.468Z,8.60
2019-03-22T11:23:41.193Z,8.50
2019-03-22T11:26:07.645Z,8.30
2019-03-22T11:28:35.144Z,8.40
2019-03-22T11:31:04.953Z,8.40
2019-03-22T11:33:30.160Z,8.40
2019-03-22T11:35:56.795Z,8.40
2019-03-22T11:38:23.160Z,8.30
2019-03-22T11:40:50.761Z,8.30
2019-03-22T11:43:17.689Z,8.40
2019-03-22T11:45:44.373Z,8.40
2019-03-22T11:48:12.947Z,8.50
2019-03-22T11:50:39.516Z,8.50
2019-03-22T11:53:06.114Z,8.60
2019-03-22T11:55:33.770Z,8.60
2019-03-22T11:58:00.341Z,8.80
2019-03-22T12:00:27.388Z,8.90
2019-03-22T12:02:54.091Z,8.90
2019-03-22T12:05:21.631Z,9.00
2019-03-22T12:07:48.236Z,9.00
2019-03-22T12:10:17.233Z,9.10
2019-03-22T12:12:43.701Z,9.30
2019-03-22T12:15:12.508Z,9.20
2019-03-22T12:17:39.110Z,9.20
2019-03-22T12:20:09.330Z,9.20
2019-03-22T12:22:35.994Z,9.40
2019-03-22T12:25:03.241Z,9.40
2019-03-22T12:27:36.586Z,9.40
2019-03-22T12:29:58.343Z,9.60
2019-03-22T12:32:32.013Z,9.80
2019-03-22T12:34:53.479Z,9.80
2019-03-22T12:37:20.064Z,9.90
2019-03-22T12:39:46.528Z,9.90
2019-03-22T12:42:13.062Z,10.10
2019-03-22T12:44:39.715Z,10.50
2019-03-22T12:47:06.166Z,11.20
2019-03-22T12:49:33.902Z,12.20
2019-03-22T12:52:00.422Z,13.00
2019-03-22T12:54:26.792Z,13.60
2019-03-22T12:56:53.555Z,14.30
2019-03-22T12:59:20.323Z,14.90
2019-03-22T13:01:47.002Z,15.50
2019-03-22T13:04:13.496Z,15.80
2019-03-22T13:06:39.820Z,15.90
2019-03-22T13:09:06.936Z,16.20
2019-03-22T13:11:33.656Z,16.30
2019-03-22T13:14:00.004Z,16.50
2019-03-22T13:16:26.637Z,16.20
2019-03-22T13:18:53.260Z,16.20
2019-03-22T13:21:19.881Z,16.20
2019-03-22T13:23:46.637Z,16.20
2019-03-22T13:26:13.150Z,16.00
2019-03-22T13:28:39.639Z,15.50
2019-03-22T13:31:06.268Z,15.30
2019-03-22T13:33:32.777Z,15.20
2019-03-22T13:35:59.285Z,14.60
2019-03-22T13:38:25.750Z,14.30
2019-03-22T13:40:52.339Z,14.20
2019-03-22T13:43:18.857Z,13.90
2019-03-22T13:45:45.504Z,13.90
2019-03-22T13:48:12.188Z,13.10
2019-03-22T13:50:38.818Z,13.00
2019-03-22T13:53:05.296Z,12.80
2019-03-22T13:55:32.211Z,12.70
2019-03-22T13:57:58.778Z,12.30
2019-03-22T14:00:25.455Z,11.80
2019-03-22T14:03:02.092Z,11.30
2019-03-22T14:05:20.507Z,11.30
2019-03-22T14:07:47.072Z,11.40
2019-03-22T14:10:28.244Z,11.50
2019-03-22T14:12:54.763Z,11.50
2019-03-22T14:15:21.108Z,11.40
2019-03-22T14:17:47.595Z,11.30
2019-03-22T14:20:14.517Z,11.20
2019-03-22T14:22:42.525Z,11.20
2019-03-22T14:25:09.076Z,11.30
2019-03-22T14:27:35.511Z,11.10
2019-03-22T14:30:07.025Z,11.10
2019-03-22T14:32:33.584Z,11.00
2019-03-22T14:35:00.015Z,10.90
2019-03-22T14:37:28.359Z,10.90
2019-03-22T14:39:56.191Z,10.90
2019-03-22T14:42:22.859Z,10.70
2019-03-22T14:44:49.239Z,10.70
2019-03-22T14:47:15.665Z,10.60
2019-03-22T14:49:43.274Z,10.50
2019-03-22T14:52:09.806Z,10.40
2019-03-22T14:54:36.325Z,10.30
2019-03-22T14:57:03.095Z,10.10
2019-03-22T14:59:29.579Z,10.00
2019-03-22T15:01:56.217Z,9.80
2019-03-22T15:04:22.707Z,9.70
2019-03-22T15:06:49.262Z,9.70
2019-03-22T15:09:15.957Z,9.60
2019-03-22T15:11:42.612Z,9.50
2019-03-22T15:14:13.798Z,9.40
2019-03-22T15:16:47.914Z,9.30
2019-03-22T15:19:21.196Z,9.20
2019-03-22T15:21:58.512Z,9.10
2019-03-22T15:24:30.335Z,9.00
2019-03-22T15:27:01.500Z,8.80
2019-03-22T15:29:38.996Z,8.80
2019-03-22T15:32:23.602Z,8.70
2019-03-22T15:34:58.051Z,8.60
2019-03-22T15:37:27.476Z,8.50
2019-03-22T15:40:00.001Z,8.40
2019-03-22T15:42:27.337Z,8.40
2019-03-22T15:44:53.986Z,8.30
2019-03-22T15:47:20.596Z,8.30
2019-03-22T15:49:47.086Z,8.10
2019-03-22T15:52:13.580Z,8.00
2019-03-22T15:54:42.007Z,7.90
2019-03-22T15:57:10.308Z,7.80
2019-03-22T15:59:37.021Z,7.70
2019-03-22T16:02:03.582Z,7.70
2019-03-22T16:04:30.260Z,7.60
2019-03-22T16:06:57.200Z,7.60
2019-03-22T16:09:23.728Z,7.50
2019-03-22T16:11:50.302Z,7.50
2019-03-22T16:14:16.828Z,7.40
2019-03-22T16:16:43.410Z,7.40
2019-03-22T16:19:09.943Z,7.40
2019-03-22T16:21:36.509Z,7.30
2019-03-22T16:24:03.182Z,7.30
2019-03-22T16:26:30.067Z,7.20
2019-03-22T16:28:56.709Z,7.10
2019-03-22T16:31:23.219Z,7.10
2019-03-22T16:33:54.350Z,7.10
2019-03-22T16:36:18.061Z,7.00
2019-03-22T16:38:44.560Z,7.00
2019-03-22T16:41:11.077Z,7.00
2019-03-22T16:43:37.716Z,6.90
2019-03-22T16:46:04.338Z,6.80
2019-03-22T16:48:30.859Z,6.80
2019-03-22T16:50:57.384Z,6.70
2019-03-22T16:53:24.026Z,6.70
2019-03-22T16:55:51.902Z,6.70
2019-03-22T16:58:18.327Z,6.60
2019-03-22T17:00:44.824Z,6.60
2019-03-22T17:03:11.604Z,6.50
2019-03-22T17:05:39.888Z,6.50
2019-03-22T17:08:06.413Z,6.50
2019-03-22T17:10:32.950Z,6.30
2019-03-22T17:12:59.449Z,6.30
2019-03-22T17:15:27.432Z,6.30
2019-03-22T17:17:54.122Z,6.20
2019-03-22T17:20:20.813Z,6.10
2019-03-22T17:22:47.274Z,6.00
2019-03-22T17:25:13.724Z,5.90
2019-03-22T17:27:40.240Z,5.90
2019-03-22T17:30:08.648Z,5.80
2019-03-22T17:32:37.309Z,5.70
2019-03-22T17:35:06.356Z,5.70
2019-03-22T17:37:32.731Z,5.60
2019-03-22T17:40:01.315Z,5.60
2019-03-22T17:42:27.827Z,5.50
2019-03-22T17:44:54.352Z,5.40
2019-03-22T17:47:20.884Z,5.30
2019-03-22T17:49:48.318Z,5.30
2019-03-22T17:52:15.281Z,5.30
2019-03-22T17:54:41.703Z,5.20
2019-03-22T17:57:08.049Z,5.20
2019-03-22T17:59:34.540Z,5.10
2019-03-22T18:02:01.294Z,5.10
2019-03-22T18:04:27.908Z,5.10
2019-03-22T18:06:54.362Z,5.00
2019-03-22T18:09:20.979Z,5.00
2019-03-22T18:11:47.512Z,4.90
2019-03-22T18:14:13.974Z,4.90
2019-03-22T18:16:40.950Z,4.90
2019-03-22T18:19:09.369Z,4.80
2019-03-22T18:21:35.693Z,4.80
2019-03-22T18:24:02.189Z,4.80
2019-03-22T18:26:28.867Z,4.80
2019-03-22T18:28:55.480Z,4.70
2019-03-22T18:31:22.121Z,4.70
2019-03-22T18:33:48.606Z,4.70
2019-03-22T18:36:15.058Z,4.70
2019-03-22T18:38:41.686Z,4.60
2019-03-22T18:41:08.176Z,4.50
2019-03-22T18:43:34.663Z,4.40
2019-03-22T18:46:01.153Z,4.40
2019-03-22T18:48:27.635Z,4.40
2019-03-22T18:50:57.085Z,4.40
2019-03-22T18:53:24.338Z,4.30
2019-03-22T18:55:50.888Z,4.30
2019-03-22T18:58:17.790Z,4.30
2019-03-22T19:00:44.432Z,4.30
2019-03-22T19:03:10.858Z,4.30
2019-03-22T19:05:37.336Z,4.30
2019-03-22T19:08:03.826Z,4.30
2019-03-22T19:10:30.420Z,4.30
2019-03-22T19:12:57.238Z,4.30
2019-03-22T19:15:23.895Z,4.40
2019-03-22T19:17:50.412Z,4.40
2019-03-22T19:20:17.097Z,4.40
2019-03-22T19:22:43.715Z,4.40
2019-03-22T19:25:10.422Z,4.50
2019-03-22T19:27:36.931Z,4.50
2019-03-22T19:30:06.288Z,4.50
2019-03-22T19:32:32.790Z,4.50
2019-03-22T19:34:59.337Z,4.50
2019-03-22T19:37:26.060Z,4.60
2019-03-22T19:39:52.537Z,4.60
2019-03-22T19:42:19.214Z,4.70
2019-03-22T19:44:45.592Z,4.70
2019-03-22T19:47:12.201Z,4.70
2019-03-22T19:49:38.688Z,4.70
2019-03-22T19:52:05.203Z,4.70
2019-03-22T19:54:31.603Z,4.80
2019-03-22T19:56:58.034Z,4.80
2019-03-22T19:59:24.468Z,4.90
2019-03-22T20:01:50.929Z,4.90
2019-03-22T20:04:17.399Z,4.90
2019-03-22T20:06:43.859Z,5.00
2019-03-22T20:09:10.713Z,5.10
2019-03-22T20:11:37.234Z,5.10
2019-03-22T20:14:03.886Z,5.10
2019-03-22T20:16:30.495Z,5.10
2019-03-22T20:18:56.968Z,5.10
2019-03-22T20:21:23.523Z,5.10
2019-03-22T20:23:53.796Z,5.20
2019-03-22T20:26:18.392Z,5.20
2019-03-22T20:28:44.745Z,5.20
2019-03-22T20:31:11.362Z,5.10
2019-03-22T20:33:37.891Z,5.10
2019-03-22T20:36:04.418Z,5.10
2019-03-22T20:38:30.966Z,5.10
2019-03-22T20:40:57.326Z,5.20
2019-03-22T20:43:23.769Z,5.20
2019-03-22T20:45:50.247Z,5.20
2019-03-22T20:48:16.820Z,5.20
2019-03-22T20:50:43.172Z,5.20
2019-03-22T20:53:09.714Z,5.20
2019-03-22T20:55:36.163Z,5.10
2019-03-22T20:58:02.554Z,5.10
2019-03-22T21:00:29.095Z,5.10
2019-03-22T21:02:55.549Z,5.10
2019-03-22T21:05:26.802Z,5.10
2019-03-22T21:07:50.103Z,5.10
2019-03-22T21:10:16.587Z,5.10
2019-03-22T21:12:42.956Z,5.10
2019-03-22T21:15:10.771Z,5.10
2019-03-22T21:17:37.319Z,5.10
2019-03-22T21:20:06.112Z,5.10
2019-03-22T21:22:32.632Z,5.10
2019-03-22T21:24:58.975Z,5.10
2019-03-22T21:27:26.086Z,5.10
2019-03-22T21:29:52.565Z,5.10
2019-03-22T21:32:18.993Z,5.10
2019-03-22T21:34:45.401Z,5.10
2019-03-22T21:37:11.944Z,5.20
2019-03-22T21:39:38.285Z,5.20
2019-03-22T21:42:04.859Z,5.20
2019-03-22T21:44:31.334Z,5.10
2019-03-22T21:46:57.713Z,5.10
2019-03-22T21:49:24.182Z,5.10
2019-03-22T21:51:50.594Z,5.10
2019-03-22T21:54:17.169Z,5.10
2019-03-22T21:56:43.626Z,5.00
2019-03-22T21:59:09.975Z,5.00
2019-03-22T22:01:36.523Z,5.00
2019-03-22T22:04:03.214Z,5.00
2019-03-22T22:06:29.881Z,5.00
2019-03-22T22:08:56.409Z,5.00
2019-03-22T22:11:22.790Z,5.00
2019-03-22T22:13:49.384Z,5.00
2019-03-22T22:16:15.789Z,5.00
2019-03-22T22:18:42.177Z,5.00
2019-03-22T22:21:08.703Z,5.00
2019-03-22T22:23:35.085Z,5.00
2019-03-22T22:26:01.559Z,4.90
2019-03-22T22:28:28.062Z,4.90
2019-03-22T22:30:54.547Z,4.90
2019-03-22T22:33:21.103Z,4.90
2019-03-22T22:35:58.011Z,4.90
2019-03-22T22:38:15.887Z,4.90
2019-03-22T22:40:42.553Z,4.80
2019-03-22T22:43:08.936Z,4.80
2019-03-22T22:45:36.437Z,4.80
2019-03-22T22:48:03.130Z,4.80
2019-03-22T22:50:29.681Z,4.70
2019-03-22T22:52:56.259Z,4.80
2019-03-22T22:55:22.864Z,4.70
2019-03-22T22:57:49.325Z,4.70
2019-03-22T23:00:16.130Z,4.80
2019-03-22T23:02:42.994Z,4.80
2019-03-22T23:05:09.549Z,4.80
2019-03-22T23:07:36.129Z,4.80
2019-03-22T23:10:04.406Z,4.80
2019-03-22T23:12:30.863Z,4.80
2019-03-22T23:14:57.157Z,4.80
2019-03-22T23:17:23.888Z,4.80
2019-03-22T23:19:50.466Z,4.80
2019-03-22T23:22:16.954Z,4.90
2019-03-22T23:24:43.293Z,4.80
2019-03-22T23:27:09.747Z,4.80
2019-03-22T23:29:36.300Z,4.80
2019-03-22T23:32:02.938Z,4.80
2019-03-22T23:34:29.445Z,4.80
2019-03-22T23:36:56.103Z,4.80
2019-03-22T23:39:22.291Z,4.80
2019-03-22T23:41:48.731Z,4.80
2019-03-22T23:44:15.020Z,4.80
2019-03-22T23:46:41.625Z,4.80
2019-03-22T23:49:08.079Z,4.80
2019-03-22T23:51:34.375Z,4.80
2019-03-22T23:54:00.861Z,4.80
2019-03-22T23:56:27.322Z,4.80
2019-03-22T23:58:53.735Z,4.80
